createdAt,value
2023-05-04T16:59:41.212Z,93708.63
2023-05-04T17:04:45.481Z,93672.34
2023-05-04T17:10:30.320Z,93717.81
2023-05-04T17:15:34.120Z,93724.50
2023-05-04T17:20:37.879Z,93737.88
2023-05-04T17:25:42.066Z,93746.53
2023-05-04T17:30:46.379Z,93743.38
2023-05-04T17:35:50.395Z,93742.22
2023-05-04T17:40:54.331Z,93747.63
2023-05-04T17:46:00.210Z,93750.31
2023-05-04T17:51:08.052Z,93763.91
2023-05-04T17:56:12.138Z,93759.50
2023-05-04T18:01:16.778Z,93760.56
2023-05-04T18:06:20.924Z,93771.78
2023-05-04T18:11:25.326Z,93779.03
2023-05-04T18:16:28.983Z,93778.53
2023-05-04T18:21:37.259Z,93794.75
2023-05-04T18:26:41.070Z,93796.56
2023-05-04T18:31:45.587Z,93794.47
2023-05-04T18:36:49.426Z,93786.81
2023-05-04T18:41:53.315Z,93803.50
2023-05-04T18:46:57.529Z,93816.66
2023-05-04T18:52:02.807Z,93827.00
2023-05-04T18:57:07.128Z,93820.38
2023-05-04T19:02:10.252Z,93799.16
2023-05-04T19:07:15.946Z,93834.50
2023-05-04T19:12:20.140Z,93834.84
2023-05-04T19:17:23.976Z,93843.88
2023-05-04T19:22:28.212Z,93860.84
2023-05-04T19:27:35.429Z,93862.72
2023-05-04T19:32:39.511Z,93861.09
2023-05-04T19:37:43.467Z,93872.25
2023-05-04T19:42:47.961Z,93867.47
2023-05-04T19:47:53.111Z,93887.97
2023-05-04T19:52:57.237Z,93892.22
2023-05-04T19:58:01.664Z,93903.81
2023-05-04T20:03:06.083Z,93909.72
2023-05-04T20:08:09.718Z,93914.84
2023-05-04T20:13:14.146Z,93907.88
2023-05-04T20:18:18.524Z,93905.44
2023-05-04T20:23:23.501Z,93908.31
2023-05-04T20:28:26.692Z,93899.25
2023-05-04T20:33:30.626Z,93911.34
2023-05-04T20:38:35.170Z,93906.16
2023-05-04T20:43:39.034Z,93897.69
2023-05-04T20:48:43.197Z,93907.09
2023-05-04T20:53:47.815Z,93922.94
2023-05-04T20:58:51.592Z,93908.28
2023-05-04T21:03:56.830Z,93913.19
2023-05-04T21:09:02.277Z,93922.50
2023-05-04T21:14:06.716Z,93928.38
2023-05-04T21:19:11.248Z,93918.16
2023-05-04T21:24:16.442Z,93927.34
2023-05-04T21:29:20.454Z,93897.13
2023-05-04T21:34:25.208Z,93921.72
2023-05-04T21:39:29.267Z,93910.28
2023-05-04T21:44:33.439Z,93918.25
2023-05-04T21:49:37.527Z,93922.69
2023-05-04T21:54:41.488Z,93941.34
2023-05-04T21:59:49.469Z,93930.38
2023-05-04T22:04:53.934Z,93939.56
2023-05-04T22:09:57.435Z,93928.59
2023-05-04T22:15:01.144Z,93939.44
2023-05-04T22:20:05.889Z,93939.00
2023-05-04T22:25:10.505Z,93924.00
2023-05-04T22:30:14.563Z,93933.47
2023-05-04T22:35:18.962Z,93934.16
2023-05-04T22:40:22.946Z,93935.22
2023-05-04T22:45:26.514Z,93923.66
2023-05-04T22:50:30.770Z,93929.63
2023-05-04T22:55:34.109Z,93917.75
2023-05-04T23:00:38.107Z,93916.06
2023-05-04T23:05:41.307Z,93881.97
2023-05-04T23:10:46.077Z,93899.53
2023-05-04T23:15:49.233Z,93895.16
2023-05-04T23:20:53.476Z,93890.69
2023-05-04T23:25:57.329Z,93881.72
2023-05-04T23:31:00.475Z,93866.31
2023-05-04T23:36:04.129Z,93862.03
2023-05-04T23:41:07.928Z,93859.50
2023-05-04T23:46:11.657Z,93855.53
2023-05-04T23:51:14.664Z,93859.28
2023-05-04T23:56:18.225Z,93858.97
